sensor_id;sensor_type;location;lat;lon;timestamp;P1;durP1;ratioP1;P2;durP2;ratioP2
37715;SDS011;23562;50.540;12.504;2022-07-23T00:01:20;8.15;;;7.05;;
37715;SDS011;23562;50.540;12.504;2022-07-23T00:03:46;8.55;;;6.78;;
37715;SDS011;23562;50.540;12.504;2022-07-23T00:06:11;9.75;;;6.85;;
37715;SDS011;23562;50.540;12.504;2022-07-23T00:08:37;8.07;;;7.15;;
37715;SDS011;23562;50.540;12.504;2022-07-23T00:11:02;8.37;;;7.07;;
37715;SDS011;23562;50.540;12.504;2022-07-23T00:13:27;10.80;;;7.07;;
37715;SDS011;23562;50.540;12.504;2022-07-23T00:15:53;10.13;;;7.22;;
37715;SDS011;23562;50.540;12.504;2022-07-23T00:18:18;13.63;;;6.95;;
37715;SDS011;23562;50.540;12.504;2022-07-23T00:20:44;10.77;;;7.28;;
37715;SDS011;23562;50.540;12.504;2022-07-23T00:23:09;10.32;;;6.97;;
37715;SDS011;23562;50.540;12.504;2022-07-23T00:25:34;9.77;;;7.57;;
37715;SDS011;23562;50.540;12.504;2022-07-23T00:28:00;8.73;;;6.90;;
37715;SDS011;23562;50.540;12.504;2022-07-23T00:30:26;12.80;;;7.40;;
37715;SDS011;23562;50.540;12.504;2022-07-23T00:32:55;11.95;;;7.60;;
37715;SDS011;23562;50.540;12.504;2022-07-23T00:35:23;13.32;;;8.15;;
37715;SDS011;23562;50.540;12.504;2022-07-23T00:37:50;13.07;;;7.72;;
37715;SDS011;23562;50.540;12.504;2022-07-23T00:40:15;13.43;;;8.18;;
37715;SDS011;23562;50.540;12.504;2022-07-23T00:42:41;9.43;;;8.43;;
37715;SDS011;23562;50.540;12.504;2022-07-23T00:45:06;11.70;;;7.90;;
37715;SDS011;23562;50.540;12.504;2022-07-23T00:47:32;9.30;;;7.65;;
37715;SDS011;23562;50.540;12.504;2022-07-23T00:49:58;9.35;;;7.68;;
37715;SDS011;23562;50.540;12.504;2022-07-23T00:52:23;11.73;;;8.35;;
37715;SDS011;23562;50.540;12.504;2022-07-23T00:54:49;9.77;;;8.02;;
37715;SDS011;23562;50.540;12.504;2022-07-23T00:57:15;9.82;;;7.28;;
37715;SDS011;23562;50.540;12.504;2022-07-23T00:59:41;16.60;;;8.18;;
37715;SDS011;23562;50.540;12.504;2022-07-23T01:02:06;9.18;;;7.88;;
37715;SDS011;23562;50.540;12.504;2022-07-23T01:04:31;8.80;;;7.88;;
37715;SDS011;23562;50.540;12.504;2022-07-23T01:06:57;11.13;;;7.65;;
37715;SDS011;23562;50.540;12.504;2022-07-23T01:09:22;11.63;;;8.40;;
37715;SDS011;23562;50.540;12.504;2022-07-23T01:11:48;10.52;;;7.60;;
37715;SDS011;23562;50.540;12.504;2022-07-23T01:14:14;9.45;;;7.53;;
37715;SDS011;23562;50.540;12.504;2022-07-23T01:16:41;10.30;;;7.55;;
37715;SDS011;23562;50.540;12.504;2022-07-23T01:19:08;9.38;;;8.02;;
37715;SDS011;23562;50.540;12.504;2022-07-23T01:21:35;12.35;;;8.63;;
37715;SDS011;23562;50.540;12.504;2022-07-23T01:24:01;14.05;;;8.82;;
37715;SDS011;23562;50.540;12.504;2022-07-23T01:26:27;9.07;;;8.07;;
37715;SDS011;23562;50.540;12.504;2022-07-23T01:28:52;12.63;;;8.53;;
37715;SDS011;23562;50.540;12.504;2022-07-23T01:31:17;9.52;;;8.10;;
37715;SDS011;23562;50.540;12.504;2022-07-23T01:33:44;9.38;;;8.45;;
37715;SDS011;23562;50.540;12.504;2022-07-23T01:36:09;12.27;;;8.50;;
37715;SDS011;23562;50.540;12.504;2022-07-23T01:38:34;12.02;;;8.98;;
37715;SDS011;23562;50.540;12.504;2022-07-23T01:40:59;10.23;;;8.60;;
37715;SDS011;23562;50.540;12.504;2022-07-23T01:43:25;13.03;;;9.23;;
37715;SDS011;23562;50.540;12.504;2022-07-23T01:45:50;10.97;;;8.80;;
37715;SDS011;23562;50.540;12.504;2022-07-23T01:48:15;12.50;;;8.90;;
37715;SDS011;23562;50.540;12.504;2022-07-23T01:50:41;11.52;;;9.00;;
37715;SDS011;23562;50.540;12.504;2022-07-23T01:53:06;10.02;;;9.02;;
37715;SDS011;23562;50.540;12.504;2022-07-23T01:55:32;12.82;;;8.95;;
37715;SDS011;23562;50.540;12.504;2022-07-23T01:57:57;13.63;;;8.93;;
37715;SDS011;23562;50.540;12.504;2022-07-23T02:00:22;10.50;;;8.87;;
37715;SDS011;23562;50.540;12.504;2022-07-23T02:02:47;9.60;;;8.17;;
37715;SDS011;23562;50.540;12.504;2022-07-23T02:05:13;12.70;;;9.00;;
37715;SDS011;23562;50.540;12.504;2022-07-23T02:07:38;11.27;;;9.50;;
37715;SDS011;23562;50.540;12.504;2022-07-23T02:10:03;10.18;;;9.07;;
37715;SDS011;23562;50.540;12.504;2022-07-23T02:12:29;13.23;;;8.13;;
37715;SDS011;23562;50.540;12.504;2022-07-23T02:14:54;13.50;;;9.52;;
37715;SDS011;23562;50.540;12.504;2022-07-23T02:17:19;10.55;;;8.88;;
37715;SDS011;23562;50.540;12.504;2022-07-23T02:19:45;10.00;;;9.00;;
37715;SDS011;23562;50.540;12.504;2022-07-23T02:22:10;9.43;;;8.53;;
37715;SDS011;23562;50.540;12.504;2022-07-23T02:24:35;19.30;;;9.70;;
37715;SDS011;23562;50.540;12.504;2022-07-23T02:27:00;14.48;;;9.18;;
37715;SDS011;23562;50.540;12.504;2022-07-23T02:29:26;10.73;;;9.23;;
37715;SDS011;23562;50.540;12.504;2022-07-23T02:31:51;12.23;;;9.20;;
37715;SDS011;23562;50.540;12.504;2022-07-23T02:34:16;10.05;;;9.13;;
37715;SDS011;23562;50.540;12.504;2022-07-23T02:36:41;12.43;;;8.67;;
37715;SDS011;23562;50.540;12.504;2022-07-23T02:39:07;10.13;;;8.77;;
37715;SDS011;23562;50.540;12.504;2022-07-23T02:41:32;12.50;;;9.60;;
37715;SDS011;23562;50.540;12.504;2022-07-23T02:43:57;10.83;;;9.73;;
37715;SDS011;23562;50.540;12.504;2022-07-23T02:46:23;14.63;;;10.73;;
37715;SDS011;23562;50.540;12.504;2022-07-23T02:48:48;13.27;;;11.87;;
37715;SDS011;23562;50.540;12.504;2022-07-23T02:51:13;14.60;;;11.48;;
37715;SDS011;23562;50.540;12.504;2022-07-23T02:53:38;16.10;;;12.98;;
37715;SDS011;23562;50.540;12.504;2022-07-23T02:56:04;19.30;;;13.23;;
37715;SDS011;23562;50.540;12.504;2022-07-23T02:58:29;17.55;;;13.13;;
37715;SDS011;23562;50.540;12.504;2022-07-23T03:00:54;16.33;;;12.17;;
37715;SDS011;23562;50.540;12.504;2022-07-23T03:03:19;25.20;;;11.63;;
37715;SDS011;23562;50.540;12.504;2022-07-23T03:05:45;14.17;;;10.90;;
37715;SDS011;23562;50.540;12.504;2022-07-23T03:08:10;13.38;;;9.88;;
37715;SDS011;23562;50.540;12.504;2022-07-23T03:10:35;11.75;;;9.40;;
37715;SDS011;23562;50.540;12.504;2022-07-23T03:13:00;10.90;;;9.80;;
37715;SDS011;23562;50.540;12.504;2022-07-23T03:15:26;12.23;;;9.80;;
37715;SDS011;23562;50.540;12.504;2022-07-23T03:17:51;11.90;;;10.15;;
37715;SDS011;23562;50.540;12.504;2022-07-23T03:20:16;11.33;;;8.97;;
37715;SDS011;23562;50.540;12.504;2022-07-23T03:22:42;10.57;;;9.48;;
37715;SDS011;23562;50.540;12.504;2022-07-23T03:25:07;16.97;;;10.30;;
37715;SDS011;23562;50.540;12.504;2022-07-23T03:27:33;10.77;;;9.68;;
37715;SDS011;23562;50.540;12.504;2022-07-23T03:29:59;12.23;;;10.90;;
37715;SDS011;23562;50.540;12.504;2022-07-23T03:32:24;11.20;;;10.07;;
37715;SDS011;23562;50.540;12.504;2022-07-23T03:34:50;10.65;;;9.63;;
37715;SDS011;23562;50.540;12.504;2022-07-23T03:37:16;10.57;;;9.50;;
37715;SDS011;23562;50.540;12.504;2022-07-23T03:39:42;10.98;;;9.20;;
37715;SDS011;23562;50.540;12.504;2022-07-23T03:42:07;15.38;;;9.07;;
37715;SDS011;23562;50.540;12.504;2022-07-23T03:44:33;14.40;;;11.18;;
37715;SDS011;23562;50.540;12.504;2022-07-23T03:46:58;12.52;;;11.23;;
37715;SDS011;23562;50.540;12.504;2022-07-23T03:49:23;17.07;;;11.20;;
37715;SDS011;23562;50.540;12.504;2022-07-23T03:51:49;17.33;;;11.27;;
37715;SDS011;23562;50.540;12.504;2022-07-23T03:54:14;12.73;;;11.43;;
37715;SDS011;23562;50.540;12.504;2022-07-23T03:56:39;13.70;;;12.30;;
37715;SDS011;23562;50.540;12.504;2022-07-23T03:59:05;15.43;;;12.35;;
37715;SDS011;23562;50.540;12.504;2022-07-23T04:01:30;17.33;;;12.45;;
37715;SDS011;23562;50.540;12.504;2022-07-23T04:03:55;14.95;;;12.82;;
37715;SDS011;23562;50.540;12.504;2022-07-23T04:06:21;13.57;;;12.07;;
37715;SDS011;23562;50.540;12.504;2022-07-23T04:08:46;17.00;;;12.98;;
37715;SDS011;23562;50.540;12.504;2022-07-23T04:11:11;17.77;;;13.43;;
37715;SDS011;23562;50.540;12.504;2022-07-23T04:13:37;15.30;;;13.60;;
37715;SDS011;23562;50.540;12.504;2022-07-23T04:16:02;16.15;;;13.27;;
37715;SDS011;23562;50.540;12.504;2022-07-23T04:18:28;16.20;;;12.70;;
37715;SDS011;23562;50.540;12.504;2022-07-23T04:20:53;12.75;;;11.43;;
37715;SDS011;23562;50.540;12.504;2022-07-23T04:23:19;13.07;;;11.18;;
37715;SDS011;23562;50.540;12.504;2022-07-23T04:25:44;11.95;;;10.75;;
37715;SDS011;23562;50.540;12.504;2022-07-23T04:28:09;13.75;;;11.38;;
37715;SDS011;23562;50.540;12.504;2022-07-23T04:30:35;12.93;;;11.57;;
37715;SDS011;23562;50.540;12.504;2022-07-23T04:33:00;14.82;;;12.68;;
37715;SDS011;23562;50.540;12.504;2022-07-23T04:35:25;13.98;;;12.50;;
37715;SDS011;23562;50.540;12.504;2022-07-23T04:37:51;16.45;;;13.82;;
37715;SDS011;23562;50.540;12.504;2022-07-23T04:40:16;17.20;;;14.15;;
37715;SDS011;23562;50.540;12.504;2022-07-23T04:42:42;16.98;;;13.38;;
37715;SDS011;23562;50.540;12.504;2022-07-23T04:45:07;15.00;;;12.77;;
37715;SDS011;23562;50.540;12.504;2022-07-23T04:47:33;15.88;;;13.10;;
37715;SDS011;23562;50.540;12.504;2022-07-23T04:49:58;16.63;;;13.57;;
37715;SDS011;23562;50.540;12.504;2022-07-23T04:52:23;14.63;;;12.82;;
37715;SDS011;23562;50.540;12.504;2022-07-23T04:54:49;17.70;;;14.17;;
37715;SDS011;23562;50.540;12.504;2022-07-23T04:57:14;18.15;;;14.35;;
37715;SDS011;23562;50.540;12.504;2022-07-23T04:59:40;19.15;;;15.98;;
37715;SDS011;23562;50.540;12.504;2022-07-23T05:02:05;19.03;;;15.70;;
37715;SDS011;23562;50.540;12.504;2022-07-23T05:04:30;18.33;;;16.33;;
37715;SDS011;23562;50.540;12.504;2022-07-23T05:06:56;19.80;;;17.27;;
37715;SDS011;23562;50.540;12.504;2022-07-23T05:09:22;21.17;;;17.50;;
37715;SDS011;23562;50.540;12.504;2022-07-23T05:11:47;19.48;;;17.08;;
37715;SDS011;23562;50.540;12.504;2022-07-23T05:14:12;20.37;;;15.37;;
37715;SDS011;23562;50.540;12.504;2022-07-23T05:16:38;24.93;;;18.37;;
37715;SDS011;23562;50.540;12.504;2022-07-23T05:19:03;20.23;;;17.85;;
37715;SDS011;23562;50.540;12.504;2022-07-23T05:21:28;21.63;;;17.67;;
37715;SDS011;23562;50.540;12.504;2022-07-23T05:23:54;21.48;;;18.25;;
37715;SDS011;23562;50.540;12.504;2022-07-23T05:26:19;19.92;;;17.83;;
37715;SDS011;23562;50.540;12.504;2022-07-23T05:28:44;21.77;;;17.80;;
37715;SDS011;23562;50.540;12.504;2022-07-23T05:31:09;23.65;;;18.42;;
37715;SDS011;23562;50.540;12.504;2022-07-23T05:33:35;22.47;;;18.60;;
37715;SDS011;23562;50.540;12.504;2022-07-23T05:36:03;23.50;;;17.60;;
37715;SDS011;23562;50.540;12.504;2022-07-23T05:38:29;21.42;;;17.33;;
37715;SDS011;23562;50.540;12.504;2022-07-23T05:40:55;21.73;;;18.55;;
37715;SDS011;23562;50.540;12.504;2022-07-23T05:43:20;23.58;;;18.83;;
37715;SDS011;23562;50.540;12.504;2022-07-23T05:45:46;22.53;;;17.93;;
37715;SDS011;23562;50.540;12.504;2022-07-23T05:48:11;23.85;;;18.25;;
37715;SDS011;23562;50.540;12.504;2022-07-23T05:50:36;20.47;;;17.70;;
37715;SDS011;23562;50.540;12.504;2022-07-23T05:53:01;19.98;;;17.83;;
37715;SDS011;23562;50.540;12.504;2022-07-23T05:55:27;21.38;;;17.85;;
37715;SDS011;23562;50.540;12.504;2022-07-23T05:57:54;21.38;;;18.02;;
37715;SDS011;23562;50.540;12.504;2022-07-23T06:00:20;21.60;;;18.65;;
37715;SDS011;23562;50.540;12.504;2022-07-23T06:02:45;20.33;;;18.23;;
37715;SDS011;23562;50.540;12.504;2022-07-23T06:05:10;24.50;;;17.83;;
37715;SDS011;23562;50.540;12.504;2022-07-23T06:07:36;25.13;;;17.83;;
37715;SDS011;23562;50.540;12.504;2022-07-23T06:10:01;21.88;;;18.38;;
37715;SDS011;23562;50.540;12.504;2022-07-23T06:12:26;23.27;;;18.13;;
37715;SDS011;23562;50.540;12.504;2022-07-23T06:14:52;22.88;;;18.88;;
37715;SDS011;23562;50.540;12.504;2022-07-23T06:17:17;23.88;;;19.23;;
37715;SDS011;23562;50.540;12.504;2022-07-23T06:19:43;23.98;;;19.27;;
37715;SDS011;23562;50.540;12.504;2022-07-23T06:22:08;23.42;;;19.15;;
37715;SDS011;23562;50.540;12.504;2022-07-23T06:24:34;25.20;;;19.92;;
37715;SDS011;23562;50.540;12.504;2022-07-23T06:26:59;21.55;;;19.25;;
37715;SDS011;23562;50.540;12.504;2022-07-23T06:29:24;28.63;;;20.98;;
37715;SDS011;23562;50.540;12.504;2022-07-23T06:31:50;24.35;;;20.13;;
37715;SDS011;23562;50.540;12.504;2022-07-23T06:34:15;29.55;;;21.75;;
37715;SDS011;23562;50.540;12.504;2022-07-23T06:36:41;23.60;;;19.92;;
37715;SDS011;23562;50.540;12.504;2022-07-23T06:39:06;25.30;;;20.83;;
37715;SDS011;23562;50.540;12.504;2022-07-23T06:41:31;24.90;;;20.55;;
37715;SDS011;23562;50.540;12.504;2022-07-23T06:43:56;23.27;;;20.17;;
37715;SDS011;23562;50.540;12.504;2022-07-23T06:46:22;23.95;;;19.70;;
37715;SDS011;23562;50.540;12.504;2022-07-23T06:48:47;24.80;;;22.03;;
37715;SDS011;23562;50.540;12.504;2022-07-23T06:51:12;27.08;;;20.45;;
37715;SDS011;23562;50.540;12.504;2022-07-23T06:53:38;25.02;;;21.30;;
37715;SDS011;23562;50.540;12.504;2022-07-23T06:56:03;23.40;;;19.45;;
37715;SDS011;23562;50.540;12.504;2022-07-23T06:58:28;29.58;;;19.25;;
37715;SDS011;23562;50.540;12.504;2022-07-23T07:00:54;21.50;;;19.17;;
37715;SDS011;23562;50.540;12.504;2022-07-23T07:03:19;25.45;;;19.70;;
37715;SDS011;23562;50.540;12.504;2022-07-23T07:05:45;23.50;;;20.60;;
37715;SDS011;23562;50.540;12.504;2022-07-23T07:08:10;23.70;;;20.95;;
37715;SDS011;23562;50.540;12.504;2022-07-23T07:10:36;24.00;;;20.60;;
37715;SDS011;23562;50.540;12.504;2022-07-23T07:13:01;26.70;;;20.88;;
37715;SDS011;23562;50.540;12.504;2022-07-23T07:15:26;28.42;;;21.83;;
37715;SDS011;23562;50.540;12.504;2022-07-23T07:17:52;22.50;;;19.33;;
37715;SDS011;23562;50.540;12.504;2022-07-23T07:20:17;26.30;;;21.37;;
37715;SDS011;23562;50.540;12.504;2022-07-23T07:22:42;26.23;;;21.77;;
37715;SDS011;23562;50.540;12.504;2022-07-23T07:25:08;23.77;;;21.20;;
37715;SDS011;23562;50.540;12.504;2022-07-23T07:27:33;25.20;;;21.02;;
37715;SDS011;23562;50.540;12.504;2022-07-23T07:29:59;28.40;;;22.90;;
37715;SDS011;23562;50.540;12.504;2022-07-23T07:32:24;27.00;;;21.92;;
37715;SDS011;23562;50.540;12.504;2022-07-23T07:34:50;26.58;;;22.40;;
37715;SDS011;23562;50.540;12.504;2022-07-23T07:37:15;24.88;;;21.80;;
37715;SDS011;23562;50.540;12.504;2022-07-23T07:39:41;31.40;;;22.93;;
37715;SDS011;23562;50.540;12.504;2022-07-23T07:42:06;29.40;;;23.37;;
37715;SDS011;23562;50.540;12.504;2022-07-23T07:44:31;25.83;;;21.42;;
37715;SDS011;23562;50.540;12.504;2022-07-23T07:46:56;27.05;;;21.90;;
37715;SDS011;23562;50.540;12.504;2022-07-23T07:49:21;24.10;;;21.50;;
37715;SDS011;23562;50.540;12.504;2022-07-23T07:51:47;28.85;;;22.38;;
37715;SDS011;23562;50.540;12.504;2022-07-23T07:54:13;23.58;;;20.65;;
37715;SDS011;23562;50.540;12.504;2022-07-23T07:56:38;28.48;;;23.08;;
37715;SDS011;23562;50.540;12.504;2022-07-23T07:59:03;25.60;;;21.33;;
37715;SDS011;23562;50.540;12.504;2022-07-23T08:01:28;27.92;;;21.95;;
37715;SDS011;23562;50.540;12.504;2022-07-23T08:03:54;27.33;;;22.70;;
37715;SDS011;23562;50.540;12.504;2022-07-23T08:06:19;27.65;;;22.83;;
37715;SDS011;23562;50.540;12.504;2022-07-23T08:08:44;30.95;;;23.65;;
37715;SDS011;23562;50.540;12.504;2022-07-23T08:11:10;36.17;;;23.73;;
37715;SDS011;23562;50.540;12.504;2022-07-23T08:13:35;32.90;;;23.03;;
37715;SDS011;23562;50.540;12.504;2022-07-23T08:16:00;28.77;;;21.95;;
37715;SDS011;23562;50.540;12.504;2022-07-23T08:18:26;27.80;;;21.67;;
37715;SDS011;23562;50.540;12.504;2022-07-23T08:20:51;26.15;;;21.15;;
37715;SDS011;23562;50.540;12.504;2022-07-23T08:23:17;25.52;;;20.83;;
37715;SDS011;23562;50.540;12.504;2022-07-23T08:25:44;26.92;;;20.73;;
37715;SDS011;23562;50.540;12.504;2022-07-23T08:28:11;25.58;;;20.95;;
37715;SDS011;23562;50.540;12.504;2022-07-23T08:30:41;26.05;;;20.00;;
37715;SDS011;23562;50.540;12.504;2022-07-23T08:33:11;24.88;;;20.98;;
37715;SDS011;23562;50.540;12.504;2022-07-23T08:35:42;23.65;;;19.90;;
37715;SDS011;23562;50.540;12.504;2022-07-23T08:38:18;21.40;;;19.13;;
37715;SDS011;23562;50.540;12.504;2022-07-23T08:40:55;20.23;;;18.13;;
37715;SDS011;23562;50.540;12.504;2022-07-23T08:43:26;19.83;;;17.20;;
37715;SDS011;23562;50.540;12.504;2022-07-23T08:45:54;20.85;;;18.65;;
37715;SDS011;23562;50.540;12.504;2022-07-23T08:48:33;23.33;;;17.88;;
37715;SDS011;23562;50.540;12.504;2022-07-23T08:51:02;22.70;;;17.48;;
37715;SDS011;23562;50.540;12.504;2022-07-23T08:53:29;22.00;;;18.73;;
37715;SDS011;23562;50.540;12.504;2022-07-23T08:55:56;25.08;;;16.55;;
37715;SDS011;23562;50.540;12.504;2022-07-23T08:58:23;22.42;;;18.27;;
37715;SDS011;23562;50.540;12.504;2022-07-23T09:00:49;18.98;;;15.38;;
37715;SDS011;23562;50.540;12.504;2022-07-23T09:03:15;19.83;;;17.17;;
37715;SDS011;23562;50.540;12.504;2022-07-23T09:05:45;18.33;;;16.27;;
37715;SDS011;23562;50.540;12.504;2022-07-23T09:13:35;18.35;;;16.00;;
37715;SDS011;23562;50.540;12.504;2022-07-23T09:16:12;19.20;;;14.85;;
37715;SDS011;23562;50.540;12.504;2022-07-23T09:18:46;20.58;;;15.90;;
37715;SDS011;23562;50.540;12.504;2022-07-23T09:21:23;17.48;;;15.43;;
37715;SDS011;23562;50.540;12.504;2022-07-23T09:23:50;17.65;;;15.82;;
37715;SDS011;23562;50.540;12.504;2022-07-23T09:26:22;17.67;;;15.52;;
37715;SDS011;23562;50.540;12.504;2022-07-23T09:28:52;18.17;;;15.35;;
37715;SDS011;23562;50.540;12.504;2022-07-23T09:31:21;17.55;;;15.40;;
37715;SDS011;23562;50.540;12.504;2022-07-23T09:33:47;17.45;;;15.73;;
37715;SDS011;23562;50.540;12.504;2022-07-23T09:36:13;16.52;;;14.80;;
37715;SDS011;23562;50.540;12.504;2022-07-23T09:38:47;15.80;;;14.20;;
37715;SDS011;23562;50.540;12.504;2022-07-23T09:41:14;17.35;;;15.52;;
37715;SDS011;23562;50.540;12.504;2022-07-23T09:43:40;18.02;;;15.15;;
37715;SDS011;23562;50.540;12.504;2022-07-23T09:46:22;17.05;;;15.25;;
37715;SDS011;23562;50.540;12.504;2022-07-23T09:48:49;18.08;;;14.82;;
37715;SDS011;23562;50.540;12.504;2022-07-23T09:51:18;16.73;;;14.67;;
37715;SDS011;23562;50.540;12.504;2022-07-23T09:53:49;16.52;;;14.73;;
37715;SDS011;23562;50.540;12.504;2022-07-23T09:56:14;15.23;;;13.43;;
37715;SDS011;23562;50.540;12.504;2022-07-23T09:58:40;19.98;;;13.73;;
37715;SDS011;23562;50.540;12.504;2022-07-23T10:01:12;18.73;;;13.82;;
37715;SDS011;23562;50.540;12.504;2022-07-23T10:03:38;17.45;;;14.13;;
37715;SDS011;23562;50.540;12.504;2022-07-23T10:06:05;17.75;;;13.40;;
37715;SDS011;23562;50.540;12.504;2022-07-23T10:08:30;19.02;;;14.27;;
37715;SDS011;23562;50.540;12.504;2022-07-23T10:10:57;15.43;;;13.93;;
37715;SDS011;23562;50.540;12.504;2022-07-23T10:13:24;15.55;;;13.85;;
37715;SDS011;23562;50.540;12.504;2022-07-23T10:16:08;15.95;;;14.32;;
37715;SDS011;23562;50.540;12.504;2022-07-23T10:18:33;15.25;;;13.60;;
37715;SDS011;23562;50.540;12.504;2022-07-23T10:20:59;19.52;;;14.55;;
37715;SDS011;23562;50.540;12.504;2022-07-23T10:26:31;16.50;;;14.25;;
37715;SDS011;23562;50.540;12.504;2022-07-23T10:29:21;15.38;;;13.85;;
37715;SDS011;23562;50.540;12.504;2022-07-23T10:32:08;15.10;;;13.60;;
37715;SDS011;23562;50.540;12.504;2022-07-23T10:34:59;16.20;;;14.30;;
37715;SDS011;23562;50.540;12.504;2022-07-23T10:37:38;18.65;;;13.73;;
37715;SDS011;23562;50.540;12.504;2022-07-23T10:40:10;14.52;;;13.00;;
37715;SDS011;23562;50.540;12.504;2022-07-23T10:42:39;14.70;;;13.23;;
37715;SDS011;23562;50.540;12.504;2022-07-23T10:45:27;16.25;;;14.57;;
37715;SDS011;23562;50.540;12.504;2022-07-23T10:48:12;17.42;;;14.02;;
37715;SDS011;23562;50.540;12.504;2022-07-23T10:51:05;15.18;;;12.95;;
37715;SDS011;23562;50.540;12.504;2022-07-23T10:58:47;15.00;;;13.40;;
37715;SDS011;23562;50.540;12.504;2022-07-23T11:04:02;15.70;;;13.10;;
37715;SDS011;23562;50.540;12.504;2022-07-23T11:09:29;16.77;;;14.82;;
37715;SDS011;23562;50.540;12.504;2022-07-23T11:17:26;18.13;;;13.18;;
37715;SDS011;23562;50.540;12.504;2022-07-23T11:22:37;14.50;;;13.10;;
37715;SDS011;23562;50.540;12.504;2022-07-23T11:25:04;18.20;;;13.75;;
37715;SDS011;23562;50.540;12.504;2022-07-23T11:35:32;17.33;;;14.83;;
37715;SDS011;23562;50.540;12.504;2022-07-23T11:38:06;14.32;;;12.82;;
37715;SDS011;23562;50.540;12.504;2022-07-23T11:40:37;17.60;;;13.15;;
37715;SDS011;23562;50.540;12.504;2022-07-23T11:43:04;14.07;;;12.68;;
37715;SDS011;23562;50.540;12.504;2022-07-23T11:45:43;16.52;;;13.48;;
37715;SDS011;23562;50.540;12.504;2022-07-23T11:48:23;12.93;;;11.63;;
37715;SDS011;23562;50.540;12.504;2022-07-23T11:50:51;14.82;;;12.85;;
37715;SDS011;23562;50.540;12.504;2022-07-23T11:53:28;15.52;;;13.07;;
37715;SDS011;23562;50.540;12.504;2022-07-23T11:56:03;16.85;;;13.30;;
37715;SDS011;23562;50.540;12.504;2022-07-23T11:58:35;16.50;;;13.05;;
37715;SDS011;23562;50.540;12.504;2022-07-23T12:01:01;14.63;;;13.13;;
37715;SDS011;23562;50.540;12.504;2022-07-23T12:03:27;14.32;;;12.82;;
37715;SDS011;23562;50.540;12.504;2022-07-23T12:05:56;14.57;;;13.15;;
37715;SDS011;23562;50.540;12.504;2022-07-23T12:08:22;13.88;;;12.23;;
37715;SDS011;23562;50.540;12.504;2022-07-23T12:10:48;15.38;;;12.75;;
37715;SDS011;23562;50.540;12.504;2022-07-23T12:13:15;15.02;;;13.07;;
37715;SDS011;23562;50.540;12.504;2022-07-23T12:15:46;14.82;;;11.40;;
37715;SDS011;23562;50.540;12.504;2022-07-23T12:18:16;13.63;;;11.25;;
37715;SDS011;23562;50.540;12.504;2022-07-23T12:20:48;13.88;;;12.45;;
37715;SDS011;23562;50.540;12.504;2022-07-23T12:23:15;13.93;;;12.38;;
37715;SDS011;23562;50.540;12.504;2022-07-23T12:25:43;13.70;;;12.35;;
37715;SDS011;23562;50.540;12.504;2022-07-23T12:28:13;14.00;;;11.30;;
37715;SDS011;23562;50.540;12.504;2022-07-23T12:30:47;15.73;;;11.93;;
37715;SDS011;23562;50.540;12.504;2022-07-23T12:33:24;13.82;;;12.27;;
37715;SDS011;23562;50.540;12.504;2022-07-23T12:35:50;14.90;;;12.73;;
37715;SDS011;23562;50.540;12.504;2022-07-23T12:38:18;13.68;;;10.88;;
37715;SDS011;23562;50.540;12.504;2022-07-23T12:40:45;13.05;;;11.60;;
37715;SDS011;23562;50.540;12.504;2022-07-23T12:46:02;13.18;;;11.23;;
37715;SDS011;23562;50.540;12.504;2022-07-23T12:51:08;12.25;;;10.82;;
37715;SDS011;23562;50.540;12.504;2022-07-23T12:53:44;11.52;;;10.30;;
37715;SDS011;23562;50.540;12.504;2022-07-23T12:56:14;12.30;;;10.48;;
37715;SDS011;23562;50.540;12.504;2022-07-23T12:58:42;14.18;;;10.82;;
37715;SDS011;23562;50.540;12.504;2022-07-23T13:03:53;11.00;;;9.77;;
37715;SDS011;23562;50.540;12.504;2022-07-23T13:06:20;12.57;;;10.07;;
37715;SDS011;23562;50.540;12.504;2022-07-23T13:08:46;10.93;;;9.83;;
37715;SDS011;23562;50.540;12.504;2022-07-23T13:11:11;14.10;;;11.00;;
37715;SDS011;23562;50.540;12.504;2022-07-23T13:13:36;15.80;;;11.07;;
37715;SDS011;23562;50.540;12.504;2022-07-23T13:16:02;13.93;;;10.20;;
37715;SDS011;23562;50.540;12.504;2022-07-23T13:18:28;11.85;;;9.77;;
37715;SDS011;23562;50.540;12.504;2022-07-23T13:20:54;12.18;;;9.82;;
37715;SDS011;23562;50.540;12.504;2022-07-23T13:23:20;12.07;;;10.48;;
37715;SDS011;23562;50.540;12.504;2022-07-23T13:25:46;13.40;;;10.43;;
37715;SDS011;23562;50.540;12.504;2022-07-23T13:28:13;14.07;;;10.80;;
37715;SDS011;23562;50.540;12.504;2022-07-23T13:30:39;13.18;;;11.63;;
37715;SDS011;23562;50.540;12.504;2022-07-23T13:33:06;16.50;;;11.63;;
37715;SDS011;23562;50.540;12.504;2022-07-23T13:35:33;15.35;;;11.63;;
37715;SDS011;23562;50.540;12.504;2022-07-23T13:37:59;14.40;;;11.23;;
37715;SDS011;23562;50.540;12.504;2022-07-23T13:40:24;13.98;;;11.25;;
37715;SDS011;23562;50.540;12.504;2022-07-23T13:42:50;14.65;;;11.20;;
37715;SDS011;23562;50.540;12.504;2022-07-23T13:45:15;12.98;;;11.60;;
37715;SDS011;23562;50.540;12.504;2022-07-23T13:47:41;14.35;;;12.50;;
37715;SDS011;23562;50.540;12.504;2022-07-23T13:50:06;15.23;;;12.82;;
37715;SDS011;23562;50.540;12.504;2022-07-23T13:52:32;15.65;;;13.15;;
37715;SDS011;23562;50.540;12.504;2022-07-23T13:55:01;15.10;;;12.48;;
37715;SDS011;23562;50.540;12.504;2022-07-23T13:57:28;14.32;;;11.98;;
37715;SDS011;23562;50.540;12.504;2022-07-23T13:59:54;15.68;;;11.50;;
37715;SDS011;23562;50.540;12.504;2022-07-23T14:02:19;15.55;;;11.50;;
37715;SDS011;23562;50.540;12.504;2022-07-23T14:04:44;15.50;;;12.17;;
37715;SDS011;23562;50.540;12.504;2022-07-23T14:07:10;15.40;;;11.95;;
37715;SDS011;23562;50.540;12.504;2022-07-23T14:09:35;14.52;;;12.50;;
37715;SDS011;23562;50.540;12.504;2022-07-23T14:12:01;17.15;;;12.73;;
37715;SDS011;23562;50.540;12.504;2022-07-23T14:14:27;14.77;;;11.25;;
37715;SDS011;23562;50.540;12.504;2022-07-23T14:16:52;12.73;;;11.40;;
37715;SDS011;23562;50.540;12.504;2022-07-23T14:19:18;15.80;;;11.10;;
37715;SDS011;23562;50.540;12.504;2022-07-23T14:21:43;13.15;;;11.60;;
37715;SDS011;23562;50.540;12.504;2022-07-23T14:24:08;14.02;;;11.57;;
37715;SDS011;23562;50.540;12.504;2022-07-23T14:26:34;13.47;;;12.00;;
37715;SDS011;23562;50.540;12.504;2022-07-23T14:28:59;14.32;;;11.00;;
37715;SDS011;23562;50.540;12.504;2022-07-23T14:31:24;16.90;;;11.90;;
37715;SDS011;23562;50.540;12.504;2022-07-23T14:33:49;13.05;;;10.90;;
37715;SDS011;23562;50.540;12.504;2022-07-23T14:36:15;14.05;;;11.95;;
37715;SDS011;23562;50.540;12.504;2022-07-23T14:38:41;15.48;;;13.30;;
37715;SDS011;23562;50.540;12.504;2022-07-23T14:41:06;14.75;;;13.00;;
37715;SDS011;23562;50.540;12.504;2022-07-23T14:43:33;14.73;;;13.05;;
37715;SDS011;23562;50.540;12.504;2022-07-23T14:45:58;15.93;;;13.18;;
37715;SDS011;23562;50.540;12.504;2022-07-23T14:48:23;15.47;;;13.87;;
37715;SDS011;23562;50.540;12.504;2022-07-23T14:50:49;16.97;;;15.17;;
37715;SDS011;23562;50.540;12.504;2022-07-23T14:53:14;17.70;;;14.87;;
37715;SDS011;23562;50.540;12.504;2022-07-23T14:55:39;17.90;;;15.67;;